createdAt,value
2022-10-16T00:04:00.856Z,0.4
2022-10-16T00:09:01.003Z,0.4
2022-10-16T00:14:00.383Z,0.4
2022-10-16T00:19:00.775Z,0.4
2022-10-16T00:24:00.482Z,0.9
2022-10-16T00:29:00.237Z,0.9
2022-10-16T00:34:01.016Z,0.9
2022-10-16T00:44:00.170Z,1.2
2022-10-16T00:49:00.685Z,1.2
2022-10-16T00:54:00.186Z,0.9
2022-10-16T00:59:00.625Z,0.9
2022-10-16T01:04:01.118Z,0.9
2022-10-16T01:09:00.285Z,0.9
2022-10-16T01:14:00.386Z,0.9
2022-10-16T01:19:01.107Z,0.9
2022-10-16T01:24:00.644Z,0.4
2022-10-16T01:29:01.112Z,0.4
2022-10-16T01:34:00.999Z,0.4
2022-10-16T01:39:00.490Z,0.4
2022-10-16T01:44:00.505Z,0.4
2022-10-16T01:49:00.181Z,0.4
2022-10-16T01:54:00.408Z,0.9
2022-10-16T01:59:00.414Z,0.9
2022-10-16T02:04:01.279Z,0.9
2022-10-16T02:09:00.933Z,0.9
2022-10-16T02:14:00.647Z,0.6
2022-10-16T02:19:00.820Z,0.6
2022-10-16T02:24:00.403Z,0.4
2022-10-16T02:29:01.260Z,0.4
2022-10-16T02:34:00.491Z,0.7
2022-10-16T02:39:01.104Z,0.7
2022-10-16T02:44:00.585Z,0.9
2022-10-16T02:49:00.757Z,0.9
2022-10-16T02:54:01.016Z,0.9
2022-10-16T02:59:00.923Z,0.9
2022-10-16T03:04:01.111Z,0.9
2022-10-16T03:09:00.761Z,0.9
2022-10-16T03:14:00.599Z,0.9
2022-10-16T03:19:00.700Z,0.9
2022-10-16T03:24:00.275Z,0.9
2022-10-16T03:29:00.595Z,0.9
2022-10-16T03:34:00.755Z,0.4
2022-10-16T03:39:01.180Z,0.4
2022-10-16T03:44:01.177Z,0.4
2022-10-16T03:49:03.009Z,0.4
2022-10-16T03:54:00.652Z,0.4
2022-10-16T03:59:00.908Z,0.4
2022-10-16T04:04:00.527Z,0.4
2022-10-16T04:09:00.885Z,0.4
2022-10-16T04:14:00.846Z,0.4
2022-10-16T04:19:01.227Z,0.4
2022-10-16T04:24:01.200Z,0.4
2022-10-16T04:29:01.264Z,0.4
2022-10-16T04:34:01.282Z,0.4
2022-10-16T04:39:00.842Z,0.4
2022-10-16T04:44:00.426Z,0.4
2022-10-16T04:49:00.691Z,0.4
2022-10-16T04:54:00.572Z,0.4
2022-10-16T04:59:00.554Z,0.4
2022-10-16T05:04:00.821Z,0.4
2022-10-16T05:09:00.577Z,0.4
2022-10-16T05:14:00.700Z,0.5
2022-10-16T05:19:26.913Z,0.5
2022-10-16T05:24:00.732Z,0.5
2022-10-16T05:29:01.399Z,0.5
2022-10-16T05:34:00.276Z,0.6
2022-10-16T05:39:01.110Z,0.6
2022-10-16T05:44:00.868Z,0.9
2022-10-16T05:49:00.638Z,0.9
2022-10-16T05:54:01.262Z,0.4
2022-10-16T05:59:00.999Z,0.4
2022-10-16T06:04:00.820Z,0.5
2022-10-16T06:09:00.511Z,0.5
2022-10-16T06:14:00.313Z,0.9
2022-10-16T06:19:00.906Z,0.9
2022-10-16T06:24:00.508Z,0.9
2022-10-16T06:29:01.322Z,0.9
2022-10-16T06:34:01.481Z,0.9
2022-10-16T06:39:00.873Z,0.9
2022-10-16T06:44:00.481Z,0.9
2022-10-16T06:49:01.066Z,0.9
2022-10-16T06:54:03.205Z,0.9
2022-10-16T06:59:01.224Z,0.9
2022-10-16T07:14:00.513Z,0.9
2022-10-16T07:19:01.564Z,0.9
2022-10-16T07:24:01.187Z,1.1
2022-10-16T07:29:00.957Z,1.1
2022-10-16T07:34:01.023Z,1.3
2022-10-16T07:39:01.310Z,1.3
2022-10-16T07:44:01.110Z,0.9
2022-10-16T07:49:00.764Z,0.9
2022-10-16T07:54:00.369Z,1
2022-10-16T07:59:01.043Z,1
2022-10-16T08:04:00.785Z,2.2
2022-10-16T08:09:00.415Z,2.2
2022-10-16T08:14:00.955Z,2.3
2022-10-16T08:19:01.383Z,2.3
2022-10-16T08:24:01.123Z,2.2
2022-10-16T08:29:00.739Z,2.2
2022-10-16T08:34:01.358Z,1.8
2022-10-16T08:39:00.896Z,1.8
2022-10-16T08:44:00.553Z,2.6
2022-10-16T08:49:01.280Z,2.6
2022-10-16T08:54:00.976Z,2.2
2022-10-16T08:59:02.995Z,2.2
2022-10-16T09:04:01.141Z,2.2
2022-10-16T09:09:00.828Z,2.2
2022-10-16T09:14:01.019Z,2.2
2022-10-16T09:19:01.380Z,2.2
2022-10-16T09:24:01.142Z,2.2
2022-10-16T09:29:00.847Z,2.2
2022-10-16T09:34:01.225Z,3
2022-10-16T09:39:01.017Z,3
2022-10-16T09:44:01.015Z,3.6
2022-10-16T09:49:00.620Z,3.6
2022-10-16T09:54:00.764Z,3.8
2022-10-16T09:59:01.300Z,3.8
2022-10-16T10:04:00.682Z,3.2
2022-10-16T10:09:01.383Z,3.2
2022-10-16T10:14:01.021Z,4
2022-10-16T10:19:00.492Z,4
2022-10-16T10:24:00.857Z,3.6
2022-10-16T10:29:00.485Z,3.6
2022-10-16T10:34:01.316Z,3.6
2022-10-16T10:39:01.018Z,3.6
2022-10-16T10:44:01.385Z,3.6
2022-10-16T10:49:00.586Z,3.6
2022-10-16T10:54:01.241Z,4.2
2022-10-16T10:59:00.496Z,4.2
2022-10-16T11:04:01.719Z,4.2
2022-10-16T11:09:02.107Z,4.2
2022-10-16T11:14:01.430Z,2.9
2022-10-16T11:19:00.926Z,2.9
2022-10-16T11:24:00.525Z,3.9
2022-10-16T11:29:01.241Z,3.9
2022-10-16T11:34:01.043Z,4.3
2022-10-16T11:39:01.147Z,4.3
2022-10-16T11:44:01.046Z,3.6
2022-10-16T11:49:00.713Z,3.6
2022-10-16T11:54:01.171Z,3.7
2022-10-16T11:59:01.447Z,3.7
2022-10-16T12:04:01.061Z,4
2022-10-16T12:09:01.435Z,4
2022-10-16T12:14:01.276Z,4
2022-10-16T12:19:01.371Z,4
2022-10-16T12:24:00.534Z,4.2
2022-10-16T12:29:00.929Z,4.2
2022-10-16T12:34:00.542Z,3.6
2022-10-16T12:39:00.823Z,3.6
2022-10-16T12:44:00.672Z,4.4
2022-10-16T12:49:07.218Z,4.4
2022-10-16T12:54:00.793Z,4.1
2022-10-16T12:59:01.175Z,4.1
2022-10-16T13:04:00.562Z,4.2
2022-10-16T13:09:01.445Z,4.2
2022-10-16T13:14:01.328Z,4.5
2022-10-16T13:19:00.935Z,4.5
2022-10-16T13:24:00.795Z,4.1
2022-10-16T13:29:01.681Z,4.1
2022-10-16T13:34:01.543Z,4
2022-10-16T13:39:01.370Z,4
2022-10-16T13:44:00.874Z,3.4
2022-10-16T13:49:01.711Z,3.4
2022-10-16T13:54:01.587Z,3.5
2022-10-16T13:59:01.039Z,3.5
2022-10-16T14:04:00.789Z,3.7
2022-10-16T14:09:01.218Z,3.7
2022-10-16T14:14:01.262Z,4.4
2022-10-16T14:19:01.197Z,4.4
2022-10-16T14:24:01.015Z,3.3
2022-10-16T14:29:00.911Z,3.3
2022-10-16T14:34:00.658Z,2.7
2022-10-16T14:39:01.407Z,2.7
2022-10-16T14:44:01.531Z,2.7
2022-10-16T14:49:01.368Z,2.7
2022-10-16T14:54:00.879Z,2.5
2022-10-16T14:59:01.501Z,2.5
2022-10-16T15:04:01.395Z,1.9
2022-10-16T15:09:01.168Z,1.9
2022-10-16T15:14:01.860Z,2.2
2022-10-16T15:19:01.201Z,2.2
2022-10-16T15:24:01.417Z,2.2
2022-10-16T15:29:01.349Z,2.2
2022-10-16T15:34:01.590Z,1.8
2022-10-16T15:39:00.690Z,1.8
2022-10-16T15:44:01.170Z,2.7
2022-10-16T15:49:01.163Z,2.7
2022-10-16T15:54:00.984Z,1.9
2022-10-16T15:59:01.528Z,1.9
2022-10-16T16:04:01.257Z,2.2
2022-10-16T16:14:01.300Z,1.8
2022-10-16T16:19:01.088Z,1.8
2022-10-16T16:24:00.823Z,1.3
2022-10-16T16:29:01.777Z,1.3
2022-10-16T16:34:01.269Z,0.5
2022-10-16T16:39:01.152Z,0.5
2022-10-16T16:44:01.651Z,0.4
2022-10-16T16:49:01.019Z,0.4
2022-10-16T16:54:01.359Z,0.4
2022-10-16T16:59:01.527Z,0.4
2022-10-16T17:04:00.777Z,0.4
2022-10-16T17:09:01.124Z,0.4
2022-10-16T17:14:01.497Z,0.4
2022-10-16T17:19:00.839Z,0.4
2022-10-16T17:24:01.530Z,0
2022-10-16T17:29:01.327Z,0
2022-10-16T17:34:01.109Z,0
2022-10-16T17:39:01.215Z,0
2022-10-16T17:44:01.458Z,0
2022-10-16T17:49:01.881Z,0
2022-10-16T17:54:01.546Z,0
2022-10-16T17:59:01.186Z,0
2022-10-16T18:04:00.873Z,0
2022-10-16T18:09:01.666Z,0
2022-10-16T18:14:01.477Z,0
2022-10-16T18:19:00.894Z,0
2022-10-16T18:24:01.454Z,0
2022-10-16T18:29:01.112Z,0
2022-10-16T18:34:01.753Z,0
2022-10-16T18:39:00.938Z,0
2022-10-16T18:44:00.919Z,0
2022-10-16T18:49:01.814Z,0
2022-10-16T18:54:01.507Z,0
2022-10-16T18:59:00.967Z,0
2022-10-16T19:04:01.518Z,0
2022-10-16T19:09:01.223Z,0
2022-10-16T19:14:01.021Z,0
2022-10-16T19:19:01.759Z,0
2022-10-16T19:24:01.732Z,0
2022-10-16T19:29:01.474Z,0
2022-10-16T19:34:01.227Z,0
2022-10-16T19:39:01.177Z,0
2022-10-16T19:44:01.678Z,0
2022-10-16T19:49:01.133Z,0
2022-10-16T19:54:01.392Z,0
2022-10-16T19:59:01.539Z,0
2022-10-16T20:04:01.692Z,0
2022-10-16T20:09:00.959Z,0
2022-10-16T20:14:01.345Z,0
2022-10-16T20:19:01.701Z,0
2022-10-16T20:24:01.115Z,0
2022-10-16T20:29:01.292Z,0
2022-10-16T20:34:01.674Z,0
2022-10-16T20:39:01.703Z,0
2022-10-16T20:44:01.207Z,0
2022-10-16T20:49:10.868Z,0
2022-10-16T20:54:01.244Z,0
2022-10-16T20:59:01.670Z,0
2022-10-16T21:04:01.209Z,0
2022-10-16T21:09:01.584Z,0
2022-10-16T21:14:01.368Z,0
2022-10-16T21:19:01.566Z,0
2022-10-16T21:24:01.334Z,0
2022-10-16T21:29:01.699Z,0
2022-10-16T21:34:01.198Z,0
2022-10-16T21:39:01.608Z,0
2022-10-16T21:44:01.926Z,0
2022-10-16T21:49:01.201Z,0
2022-10-16T21:54:01.008Z,0
2022-10-16T21:59:01.393Z,0
2022-10-16T22:04:01.655Z,0
2022-10-16T22:09:01.352Z,0
2022-10-16T22:14:00.894Z,0
2022-10-16T22:19:01.468Z,0
2022-10-16T22:24:00.912Z,0
2022-10-16T22:29:01.676Z,0
2022-10-16T22:34:01.192Z,0
2022-10-16T22:39:00.968Z,0
2022-10-16T22:44:01.289Z,0
2022-10-16T22:49:01.602Z,0
2022-10-16T22:54:01.792Z,0
2022-10-16T22:59:01.081Z,0
2022-10-16T23:04:01.753Z,0
2022-10-16T23:09:01.006Z,0
2022-10-16T23:14:11.421Z,0
2022-10-16T23:19:01.667Z,0
2022-10-16T23:24:01.353Z,0
2022-10-16T23:29:01.803Z,0
2022-10-16T23:34:01.305Z,0
2022-10-16T23:39:01.071Z,0
2022-10-16T23:44:01.334Z,0
2022-10-16T23:49:01.567Z,0
2022-10-16T23:54:01.080Z,0
2022-10-16T23:59:01.492Z,0
